Time;durP1;ratioP1;P1;durP2;ratioP2;P2;SDS_P1;SDS_P2;PMS_P1;PMS_P2;Temp;Humidity;BMP_temperature;BMP_pressure;BME280_temperature;BME280_humidity;BME280_pressure;Samples;Min_cycle;Max_cycle;Signal;HPM_P1;HPM_P2
2022/06/16 00:02:14;;;;;;;0.10;0.10;;;;;;;24.25;53.68;100323.72;5054753;28;20021;-74
2022/06/16 00:04:45;;;;;;;0.20;0.20;;;;;;;24.23;53.47;100323.38;5055034;28;20378;-73
2022/06/16 00:07:12;;;;;;;0.20;0.20;;;;;;;24.39;52.79;100328.97;5054508;28;20020;-73
2022/06/16 00:09:37;;;;;;;0.10;0.10;;;;;;;24.32;52.68;100320.66;5054718;28;20032;-73
2022/06/16 00:12:04;;;;;;;0.10;0.10;;;;;;;24.17;53.36;100325.97;5054433;28;20182;-74
2022/06/16 00:14:30;;;;;;;0.10;0.10;;;;;;;24.19;53.81;100328.38;5054620;28;20029;-73
2022/06/16 00:16:55;;;;;;;0.10;0.10;;;;;;;24.15;53.55;100319.16;5054103;28;20025;-72
2022/06/16 00:19:21;;;;;;;0.10;0.10;;;;;;;24.14;53.23;100320.41;5054523;28;20029;-73
2022/06/16 00:21:47;;;;;;;0.10;0.10;;;;;;;24.11;53.64;100321.31;5054140;28;20498;-74
2022/06/16 00:24:12;;;;;;;0.10;0.10;;;;;;;24.04;53.23;100319.50;5054184;28;20028;-73
2022/06/16 00:26:38;;;;;;;0.10;0.10;;;;;;;24.04;53.66;100331.66;5053878;28;20061;-73
2022/06/16 00:29:03;;;;;;;0.10;0.10;;;;;;;24.12;53.03;100320.84;5053837;28;20116;-72
2022/06/16 00:31:29;;;;;;;0.10;0.10;;;;;;;24.08;52.52;100330.75;5053738;28;20032;-73
2022/06/16 00:33:54;;;;;;;0.10;0.10;;;;;;;23.91;53.14;100327.97;5053737;28;20037;-73
2022/06/16 00:36:20;;;;;;;0.10;0.10;;;;;;;23.80;53.11;100321.81;5053664;28;20029;-72
2022/06/16 00:38:46;;;;;;;0.10;0.10;;;;;;;23.77;52.95;100323.53;5053193;28;20037;-72
2022/06/16 00:41:13;;;;;;;0.10;0.10;;;;;;;23.74;52.97;100320.78;5053709;28;20028;-72
2022/06/16 00:43:39;;;;;;;0.10;0.10;;;;;;;23.79;52.66;100308.84;5054646;28;20045;-72
2022/06/16 00:46:07;;;;;;;0.10;0.10;;;;;;;23.81;52.85;100312.06;5053443;28;20029;-72
2022/06/16 00:48:44;;;;;;;0.10;0.10;;;;;;;23.80;52.38;100316.13;5053704;28;20431;-72
2022/06/16 00:51:13;;;;;;;0.10;0.10;;;;;;;23.72;52.38;100321.22;5053640;28;20119;-74
2022/06/16 00:53:40;;;;;;;0.10;0.10;;;;;;;23.61;52.59;100336.97;5053389;28;20036;-74
2022/06/16 00:56:10;;;;;;;0.10;0.10;;;;;;;23.46;52.23;100334.50;5052996;28;20048;-74
2022/06/16 00:58:40;;;;;;;0.10;0.10;;;;;;;23.39;53.20;100331.88;5053765;28;20059;-74
2022/06/16 01:01:07;;;;;;;0.10;0.10;;;;;;;23.46;53.81;100333.72;5053610;28;20053;-74
2022/06/16 01:06:27;;;;;;;0.10;0.10;;;;;;;23.41;55.88;100332.22;5053834;28;20053;-74
2022/06/16 01:09:03;;;;;;;0.20;0.20;;;;;;;23.43;56.18;100317.56;5053571;28;20025;-73
2022/06/16 01:15:06;;;;;;;0.10;0.10;;;;;;;23.48;56.99;100328.38;5054142;28;20044;-74
2022/06/16 01:17:35;;;;;;;0.13;0.13;;;;;;;23.45;56.86;100304.53;5054398;28;20048;-73
2022/06/16 01:20:20;;;;;;;0.10;0.10;;;;;;;23.46;57.06;100314.63;5053594;28;20406;-73
2022/06/16 01:23:17;;;;;;;0.10;0.10;;;;;;;23.49;56.79;100324.31;5053235;28;20483;-73
2022/06/16 01:26:10;;;;;;;0.20;0.20;;;;;;;23.33;57.28;100322.31;5052627;28;20020;-74
2022/06/16 01:29:03;;;;;;;0.10;0.10;;;;;;;23.20;57.84;100312.94;5052907;28;20051;-73
2022/06/16 01:31:39;;;;;;;0.10;0.10;;;;;;;23.16;58.57;100303.69;5052597;28;20033;-74
2022/06/16 01:34:24;;;;;;;0.10;0.10;;;;;;;23.23;58.44;100318.53;5052752;28;20391;-73
2022/06/16 01:37:00;;;;;;;0.10;0.10;;;;;;;23.23;58.26;100312.03;5052404;28;20025;-74
2022/06/16 01:39:31;;;;;;;0.10;0.10;;;;;;;23.27;58.59;100316.34;5052682;28;20044;-74
2022/06/16 01:42:05;;;;;;;0.10;0.10;;;;;;;23.26;58.41;100311.13;5052264;28;20032;-74
2022/06/16 01:44:46;;;;;;;0.10;0.10;;;;;;;23.30;58.41;100311.84;5051895;28;20064;-74
2022/06/16 01:50:09;;;;;;;0.10;0.10;;;;;;;23.33;58.76;100310.97;5053673;28;20052;-73
2022/06/16 01:52:43;;;;;;;0.10;0.10;;;;;;;23.41;58.47;100314.38;5052860;28;20033;-75
2022/06/16 01:55:15;;;;;;;0.10;0.10;;;;;;;23.43;58.35;100307.00;5053508;28;20068;-74
2022/06/16 01:57:46;;;;;;;0.10;0.10;;;;;;;23.45;58.04;100317.94;5035710;28;20067;-74
2022/06/16 02:00:15;;;;;;;0.10;0.10;;;;;;;23.46;58.03;100316.69;5052093;28;20467;-73
2022/06/16 02:02:42;;;;;;;0.10;0.10;;;;;;;23.40;58.06;100307.13;5052077;28;20116;-74
2022/06/16 02:05:10;;;;;;;0.10;0.10;;;;;;;23.41;58.00;100315.19;5052299;28;20029;-73
2022/06/16 02:07:42;;;;;;;0.10;0.10;;;;;;;23.34;58.36;100314.59;5051966;28;20032;-73
2022/06/16 02:10:18;;;;;;;0.10;0.10;;;;;;;23.22;58.90;100313.25;5052524;28;20480;-74
2022/06/16 02:12:56;;;;;;;0.10;0.10;;;;;;;23.17;58.63;100310.97;5051979;28;20119;-74
2022/06/16 02:15:27;;;;;;;0.10;0.10;;;;;;;23.10;58.52;100314.00;5051884;28;20507;-74
2022/06/16 02:17:55;;;;;;;0.10;0.10;;;;;;;23.14;58.38;100303.38;5051856;28;20029;-74
2022/06/16 02:20:21;;;;;;;0.10;0.10;;;;;;;22.98;59.13;100304.97;5051764;28;20032;-73
2022/06/16 02:22:47;;;;;;;0.10;0.10;;;;;;;23.03;59.37;100300.03;5052146;28;20037;-74
2022/06/16 02:25:12;;;;;;;0.10;0.10;;;;;;;23.09;59.48;100301.88;5052136;28;20508;-76
2022/06/16 02:27:38;;;;;;;0.10;0.10;;;;;;;23.17;59.27;100299.63;5052438;28;20032;-73
2022/06/16 02:30:04;;;;;;;0.10;0.10;;;;;;;23.10;59.44;100296.97;5051777;28;20028;-74
2022/06/16 02:32:51;;;;;;;0.10;0.10;;;;;;;22.99;59.06;100286.72;5051379;28;20028;-73
2022/06/16 02:35:19;;;;;;;0.10;0.10;;;;;;;22.68;58.86;100246.56;5052747;28;20029;-74
2022/06/16 02:37:51;;;;;;;0.10;0.10;;;;;;;23.03;58.91;100303.66;5052519;28;20028;-73
2022/06/16 02:40:41;;;;;;;0.10;0.10;;;;;;;22.95;58.26;100299.38;5052143;28;20032;-74
2022/06/16 02:43:33;;;;;;;0.10;0.10;;;;;;;23.02;58.09;100299.22;5051445;28;20052;-74
2022/06/16 02:45:58;;;;;;;0.10;0.10;;;;;;;23.02;57.81;100301.25;5051360;28;20029;-74
2022/06/16 02:48:29;;;;;;;0.10;0.10;;;;;;;22.94;58.37;100301.44;5051571;28;20033;-73
2022/06/16 02:51:05;;;;;;;0.10;0.10;;;;;;;22.95;58.45;100299.38;5051661;28;20049;-76
2022/06/16 02:53:51;;;;;;;0.10;0.10;;;;;;;22.96;58.38;100298.97;5052165;28;20036;-75
2022/06/16 02:56:47;;;;;;;0.13;0.13;;;;;;;22.85;59.04;100292.75;5051652;28;20033;-75
2022/06/16 02:59:26;;;;;;;0.10;0.10;;;;;;;22.79;58.91;100288.81;5051329;28;20029;-76
2022/06/16 03:02:00;;;;;;;0.10;0.10;;;;;;;22.84;58.59;100287.50;5052570;28;20328;-76
2022/06/16 03:04:34;;;;;;;0.10;0.10;;;;;;;22.72;59.65;100297.53;5055704;28;20037;-75
2022/06/16 03:06:59;;;;;;;0.10;0.10;;;;;;;22.60;60.06;100292.56;5056407;28;20059;-75
2022/06/16 03:09:25;;;;;;;0.10;0.10;;;;;;;22.60;59.86;100287.69;5055895;28;20069;-75
2022/06/16 03:11:50;;;;;;;0.13;0.13;;;;;;;22.67;59.72;100289.53;5055556;28;20325;-76
2022/06/16 03:14:16;;;;;;;0.10;0.10;;;;;;;22.73;59.92;100290.59;5055245;28;20471;-75
2022/06/16 03:16:41;;;;;;;0.10;0.10;;;;;;;22.58;60.66;100295.03;5055185;28;20091;-75
2022/06/16 03:19:08;;;;;;;0.10;0.10;;;;;;;22.57;60.84;100301.94;5055096;28;20064;-76
2022/06/16 03:21:33;;;;;;;0.10;0.10;;;;;;;22.57;61.04;100299.13;5055298;28;20416;-75
2022/06/16 03:23:59;;;;;;;0.10;0.10;;;;;;;22.59;61.55;100302.31;5055059;28;20036;-76
2022/06/16 03:26:24;;;;;;;0.10;0.10;;;;;;;22.64;61.14;100301.78;5055288;28;20124;-75
2022/06/16 03:28:50;;;;;;;0.10;0.10;;;;;;;22.64;60.29;100313.13;5055044;28;20495;-75
2022/06/16 03:31:16;;;;;;;0.10;0.10;;;;;;;22.71;60.74;100316.59;5054923;28;20021;-76
2022/06/16 03:33:43;;;;;;;0.10;0.10;;;;;;;22.72;60.49;100314.53;5054855;28;20065;-76
2022/06/16 03:36:11;;;;;;;0.10;0.10;;;;;;;22.73;60.62;100314.09;5054681;28;20021;-73
2022/06/16 03:38:43;;;;;;;0.10;0.10;;;;;;;22.71;60.84;100310.13;5038174;28;20044;-74
2022/06/16 03:41:10;;;;;;;0.10;0.10;;;;;;;22.74;61.29;100306.38;5054776;28;20052;-76
2022/06/16 03:43:36;;;;;;;0.10;0.10;;;;;;;22.88;60.54;100305.25;5054418;28;20064;-73
2022/06/16 03:46:02;;;;;;;0.10;0.10;;;;;;;22.84;60.73;100299.63;5055235;28;20429;-75
2022/06/16 03:48:27;;;;;;;0.10;0.10;;;;;;;22.88;60.86;100317.41;5054682;28;20098;-75
2022/06/16 03:50:53;;;;;;;0.10;0.10;;;;;;;22.82;60.79;100309.84;5054943;28;20029;-74
2022/06/16 03:53:19;;;;;;;0.10;0.10;;;;;;;22.86;60.90;100317.03;5054628;28;20033;-74
2022/06/16 03:55:44;;;;;;;0.10;0.10;;;;;;;22.97;60.83;100323.25;5054589;28;20063;-74
2022/06/16 03:58:11;;;;;;;0.10;0.10;;;;;;;23.14;60.37;100315.50;5055070;28;20029;-74
2022/06/16 04:00:37;;;;;;;0.10;0.10;;;;;;;23.42;59.41;100325.28;5055660;28;20033;-74
2022/06/16 04:05:51;;;;;;;0.10;0.10;;;;;;;23.89;58.10;100321.94;5056271;28;20168;-74
2022/06/16 04:08:17;;;;;;;0.10;0.10;;;;;;;24.18;57.30;100332.44;5037824;28;20124;-75
2022/06/16 04:10:43;;;;;;;0.10;0.10;;;;;;;24.48;55.59;100331.16;5055410;28;20553;-75
2022/06/16 04:13:09;;;;;;;0.10;0.10;;;;;;;24.68;55.49;100333.75;5053563;28;20033;-74
2022/06/16 04:15:35;;;;;;;0.10;0.10;;;;;;;24.94;54.40;100332.47;5053705;28;20017;-75
2022/06/16 04:18:01;;;;;;;0.10;0.10;;;;;;;25.14;52.90;100334.25;5053881;28;20475;-75
2022/06/16 04:20:27;;;;;;;0.10;0.10;;;;;;;25.33;53.34;100330.34;5054058;28;20029;-74
2022/06/16 04:22:52;;;;;;;0.20;0.20;;;;;;;25.31;52.48;100332.88;5054394;28;20410;-75
2022/06/16 04:25:22;;;;;;;0.10;0.10;;;;;;;25.43;52.13;100339.78;5054325;28;20471;-74
2022/06/16 04:27:48;;;;;;;0.10;0.10;;;;;;;25.80;51.66;100332.34;5054031;28;20059;-74
2022/06/16 04:30:16;;;;;;;0.10;0.10;;;;;;;26.13;51.00;100330.63;5053735;28;20470;-74
2022/06/16 04:32:41;;;;;;;0.10;0.10;;;;;;;26.21;50.50;100338.94;5053714;28;20107;-75
2022/06/16 04:35:07;;;;;;;0.10;0.10;;;;;;;26.58;48.66;100340.72;5053860;28;20024;-74
2022/06/16 04:37:33;;;;;;;0.10;0.10;;;;;;;26.79;47.35;100350.47;5053587;28;20489;-74
2022/06/16 04:40:00;;;;;;;0.10;0.10;;;;;;;27.25;46.40;100339.16;5054075;28;20032;-74
2022/06/16 04:42:25;;;;;;;0.10;0.10;;;;;;;27.47;45.65;100341.84;5054472;28;20455;-75
2022/06/16 04:44:51;;;;;;;0.10;0.10;;;;;;;27.77;45.25;100345.84;5053727;28;20029;-74
2022/06/16 04:47:17;;;;;;;0.10;0.10;;;;;;;28.05;44.82;100351.53;5053377;28;20461;-75
2022/06/16 04:49:48;;;;;;;0.10;0.10;;;;;;;28.25;44.52;100342.44;5053633;28;20074;-74
2022/06/16 04:52:15;;;;;;;0.10;0.10;;;;;;;28.05;45.95;100342.94;5053985;28;20423;-75
2022/06/16 04:54:46;;;;;;;0.10;0.10;;;;;;;28.14;45.84;100358.03;5054235;28;20039;-75
2022/06/16 04:57:12;;;;;;;0.10;0.10;;;;;;;28.38;45.96;100357.34;5053780;28;20075;-74
2022/06/16 04:59:38;;;;;;;0.10;0.10;;;;;;;28.82;44.39;100351.13;5053105;28;20035;-74
2022/06/16 05:02:03;;;;;;;0.10;0.10;;;;;;;28.79;44.83;100349.22;5053533;28;20115;-75
2022/06/16 05:04:29;;;;;;;0.10;0.10;;;;;;;29.07;44.48;100344.94;5053351;28;20538;-75
2022/06/16 05:06:55;;;;;;;0.10;0.10;;;;;;;28.71;44.87;100363.13;5053089;28;20476;-74
2022/06/16 05:09:21;;;;;;;0.10;0.10;;;;;;;28.76;44.78;100359.56;5053115;28;20119;-74
2022/06/16 05:11:47;;;;;;;0.10;0.10;;;;;;;29.10;43.95;100360.38;5053031;28;20033;-75
2022/06/16 05:14:13;;;;;;;0.10;0.10;;;;;;;29.39;43.33;100356.81;5053186;28;20032;-74
2022/06/16 05:16:38;;;;;;;0.10;0.10;;;;;;;29.58;42.18;100366.91;5052910;28;20501;-75
2022/06/16 05:19:04;;;;;;;0.10;0.10;;;;;;;30.11;41.73;100368.97;5053371;28;20055;-74
2022/06/16 05:21:29;;;;;;;0.10;0.10;;;;;;;30.49;40.74;100378.75;5053117;28;20482;-74
2022/06/16 05:23:55;;;;;;;0.10;0.10;;;;;;;30.89;39.79;100375.25;5052621;28;20025;-75
2022/06/16 05:26:21;;;;;;;0.10;0.10;;;;;;;30.81;39.70;100373.31;5053489;28;20471;-75
2022/06/16 05:28:46;;;;;;;0.10;0.10;;;;;;;30.42;40.76;100376.31;5053217;28;20043;-75
2022/06/16 05:31:12;;;;;;;0.10;0.10;;;;;;;29.97;42.00;100375.47;5052505;28;20033;-74
2022/06/16 05:33:38;;;;;;;0.10;0.10;;;;;;;30.48;40.63;100383.72;5036024;28;20124;-74
2022/06/16 05:36:12;;;;;;;0.10;0.10;;;;;;;31.00;39.89;100357.38;5053158;28;20032;-75
2022/06/16 05:38:38;;;;;;;0.10;0.10;;;;;;;31.41;39.89;100366.06;5052978;28;20021;-75
2022/06/16 05:41:12;;;;;;;0.10;0.10;;;;;;;31.07;40.75;100374.22;5052576;28;20494;-75
2022/06/16 05:43:38;;;;;;;0.10;0.10;;;;;;;31.13;40.32;100377.16;5052293;28;20045;-75
2022/06/16 05:46:05;;;;;;;0.10;0.10;;;;;;;31.42;39.27;100370.50;5052805;28;20035;-74
2022/06/16 05:48:30;;;;;;;0.10;0.10;;;;;;;31.72;38.89;100377.69;5052339;28;20070;-75
2022/06/16 05:51:09;;;;;;;0.10;0.10;;;;;;;31.95;37.98;100381.63;5054091;28;20094;-75
2022/06/16 05:53:36;;;;;;;0.10;0.10;;;;;;;32.02;37.99;100354.50;5053285;28;20487;-75
2022/06/16 05:56:02;;;;;;;0.10;0.10;;;;;;;32.21;37.97;100377.94;5052446;28;20375;-75
2022/06/16 05:58:28;;;;;;;0.10;0.10;;;;;;;32.38;37.29;100381.00;5052400;28;20032;-75
2022/06/16 06:00:54;;;;;;;0.10;0.10;;;;;;;32.01;37.15;100384.53;5051959;28;20033;-74
2022/06/16 06:03:20;;;;;;;0.10;0.10;;;;;;;31.84;37.20;100377.84;5051971;28;20033;-74
2022/06/16 06:05:45;;;;;;;0.10;0.10;;;;;;;31.28;38.85;100377.94;5052212;28;20405;-74
2022/06/16 06:16:26;;;;;;;0.10;0.10;;;;;;;31.20;38.91;100371.75;5053118;28;20078;-74
2022/06/16 06:18:56;;;;;;;0.10;0.10;;;;;;;30.90;39.59;100367.44;5052939;28;20025;-74
2022/06/16 06:24:09;;;;;;;0.10;0.10;;;;;;;30.10;41.10;100372.31;5053250;28;20497;-73
2022/06/16 06:26:35;;;;;;;0.10;0.10;;;;;;;30.15;41.09;100363.84;5051607;28;20040;-74
2022/06/16 06:29:00;;;;;;;0.10;0.10;;;;;;;30.88;39.96;100378.63;5034846;28;20120;-73
2022/06/16 06:31:26;;;;;;;0.10;0.10;;;;;;;30.46;40.83;100371.13;5052117;28;20067;-76
2022/06/16 06:33:52;;;;;;;0.10;0.10;;;;;;;30.09;41.15;100371.50;5052339;28;20056;-75
2022/06/16 06:36:17;;;;;;;0.10;0.10;;;;;;;30.07;42.09;100371.22;5051736;28;20479;-75
2022/06/16 06:38:43;;;;;;;0.10;0.10;;;;;;;30.06;42.45;100378.25;5055383;28;20061;-75
2022/06/16 06:41:09;;;;;;;0.10;0.10;;;;;;;29.69;43.33;100367.13;5055745;28;20067;-75
2022/06/16 06:43:34;;;;;;;0.10;0.10;;;;;;;29.91;42.93;100365.97;5055511;28;20048;-74
2022/06/16 06:46:00;;;;;;;0.10;0.10;;;;;;;29.65;43.40;100372.25;5055477;28;20066;-73
2022/06/16 06:48:25;;;;;;;0.10;0.10;;;;;;;29.54;43.28;100371.22;5055484;28;20032;-74
2022/06/16 06:50:51;;;;;;;0.10;0.10;;;;;;;30.01;42.69;100373.19;5055231;28;20025;-73
2022/06/16 06:53:17;;;;;;;0.10;0.10;;;;;;;30.19;41.93;100372.25;5055278;28;20036;-73
2022/06/16 06:55:46;;;;;;;0.10;0.10;;;;;;;30.57;41.13;100382.81;5055285;28;20025;-72
2022/06/16 06:58:20;;;;;;;0.10;0.10;;;;;;;29.94;42.62;100374.38;5055458;28;20037;-73
2022/06/16 07:00:49;;;;;;;0.10;0.10;;;;;;;31.34;39.71;100375.13;5055156;28;20025;-73
2022/06/16 07:03:15;;;;;;;0.10;0.10;;;;;;;30.83;41.09;100376.44;5055483;28;20033;-73
2022/06/16 07:05:40;;;;;;;0.10;0.10;;;;;;;31.99;38.05;100378.53;5055677;28;20408;-74
2022/06/16 07:08:06;;;;;;;0.10;0.10;;;;;;;33.08;35.83;100375.56;5056658;28;20036;-74
2022/06/16 07:10:32;;;;;;;0.10;0.10;;;;;;;33.19;34.91;100386.34;5055184;28;20426;-74
2022/06/16 07:12:57;;;;;;;0.10;0.10;;;;;;;33.13;35.52;100379.75;5056235;28;20049;-74
2022/06/16 07:15:23;;;;;;;0.10;0.10;;;;;;;32.85;35.67;100388.97;5055116;28;20028;-74
2022/06/16 07:17:49;;;;;;;0.10;0.10;;;;;;;32.66;36.06;100384.94;5055390;28;20032;-74
2022/06/16 07:20:15;;;;;;;0.10;0.10;;;;;;;32.65;36.70;100386.22;5055342;28;20088;-74
2022/06/16 07:22:42;;;;;;;0.10;0.10;;;;;;;33.59;34.27;100393.09;5054964;28;20033;-74
2022/06/16 07:25:08;;;;;;;0.10;0.10;;;;;;;32.61;35.39;100371.28;5055275;28;20524;-74
2022/06/16 07:27:34;;;;;;;0.10;0.10;;;;;;;33.54;34.08;100386.00;5054968;28;20036;-74
2022/06/16 07:30:00;;;;;;;0.10;0.10;;;;;;;33.31;34.42;100393.75;5055377;28;20029;-74
2022/06/16 07:32:25;;;;;;;0.10;0.10;;;;;;;32.94;35.02;100381.47;5054837;28;20422;-74
2022/06/16 07:34:51;;;;;;;0.10;0.10;;;;;;;32.84;35.41;100383.75;5055284;28;20029;-74
2022/06/16 07:37:17;;;;;;;0.10;0.10;;;;;;;33.95;33.89;100396.41;5055072;28;20033;-74
2022/06/16 07:39:43;;;;;;;0.10;0.10;;;;;;;34.34;32.76;100368.38;5055104;28;20499;-74
2022/06/16 07:42:09;;;;;;;0.10;0.10;;;;;;;34.82;31.78;100392.53;5054696;28;20029;-74
2022/06/16 07:44:36;;;;;;;0.10;0.10;;;;;;;34.21;32.47;100394.09;5053800;28;20056;-73
2022/06/16 07:47:03;;;;;;;0.10;0.10;;;;;;;34.03;32.54;100395.34;5054143;28;20029;-73
2022/06/16 07:49:29;;;;;;;0.10;0.10;;;;;;;34.46;32.02;100382.84;5055668;28;20040;-73
2022/06/16 07:51:57;;;;;;;0.10;0.10;;;;;;;34.25;32.57;100385.97;5054484;28;20027;-72
2022/06/16 07:54:24;;;;;;;0.10;0.10;;;;;;;34.38;32.73;100385.44;5055792;28;20031;-72
2022/06/16 07:56:50;;;;;;;0.10;0.10;;;;;;;34.87;32.29;100383.06;5054734;28;20434;-74
2022/06/16 07:59:16;;;;;;;0.10;0.10;;;;;;;35.09;30.94;100379.38;5055163;28;20057;-72
2022/06/16 08:01:41;;;;;;;0.10;0.10;;;;;;;35.11;31.57;100382.53;5054012;28;20489;-72
2022/06/16 08:04:07;;;;;;;0.10;0.10;;;;;;;34.88;31.47;100375.97;5054654;28;20028;-73
2022/06/16 08:06:35;;;;;;;0.10;0.10;;;;;;;34.90;32.04;100382.03;5054114;28;20025;-73
2022/06/16 08:09:05;;;;;;;0.10;0.10;;;;;;;34.44;32.76;100382.56;5055228;28;20029;-73
2022/06/16 08:14:15;;;;;;;0.10;0.10;;;;;;;36.66;29.34;100378.56;5055698;28;20043;-74
2022/06/16 08:16:40;;;;;;;0.10;0.10;;;;;;;35.40;31.31;100375.34;5053899;28;20032;-72
2022/06/16 08:19:06;;;;;;;0.10;0.10;;;;;;;34.21;33.38;100371.00;5054085;28;20589;-72
2022/06/16 08:21:32;;;;;;;0.10;0.10;;;;;;;34.30;32.94;100375.72;5053787;28;20028;-72
2022/06/16 08:23:57;;;;;;;0.10;0.10;;;;;;;33.75;34.15;100380.84;5054388;28;20047;-72
2022/06/16 08:26:24;;;;;;;0.10;0.10;;;;;;;34.14;33.78;100377.28;5053859;28;20467;-73
2022/06/16 08:28:53;;;;;;;0.10;0.10;;;;;;;34.05;33.78;100380.44;5037650;28;20415;-72
2022/06/16 08:31:21;;;;;;;0.10;0.10;;;;;;;33.34;35.71;100386.94;5053920;28;20033;-75
2022/06/16 08:33:51;;;;;;;0.10;0.10;;;;;;;34.61;33.89;100372.59;5054174;28;20037;-72
2022/06/16 08:36:17;;;;;;;0.10;0.10;;;;;;;35.63;32.79;100393.41;5054714;28;20029;-71
2022/06/16 08:38:43;;;;;;;0.10;0.10;;;;;;;35.57;32.47;100384.75;5053704;28;20037;-74
2022/06/16 08:41:17;;;;;;;0.10;0.10;;;;;;;35.74;32.60;100392.56;5053580;28;20059;-72
2022/06/16 08:44:00;;;;;;;0.10;0.10;;;;;;;36.53;31.20;100387.09;5053466;28;20041;-71
2022/06/16 08:46:32;;;;;;;0.10;0.10;;;;;;;36.24;31.39;100383.59;5053791;28;20464;-74
2022/06/16 08:49:05;;;;;;;0.10;0.10;;;;;;;37.11;30.16;100386.81;5053383;28;20064;-73
2022/06/16 08:52:05;;;;;;;0.10;0.10;;;;;;;36.38;30.27;100394.03;5054723;28;20383;-74
2022/06/16 08:54:36;;;;;;;0.10;0.10;;;;;;;36.40;30.81;100376.91;5054140;28;20029;-74
2022/06/16 08:57:01;;;;;;;0.10;0.10;;;;;;;35.65;32.10;100379.22;5053260;28;20029;-73
2022/06/16 08:59:33;;;;;;;0.10;0.10;;;;;;;36.28;30.67;100389.91;5053489;28;20202;-73
2022/06/16 09:02:04;;;;;;;0.10;0.10;;;;;;;37.00;30.42;100384.03;5053500;28;20025;-74
2022/06/16 09:04:39;;;;;;;0.10;0.10;;;;;;;36.67;31.72;100391.72;5053189;28;20029;-74
2022/06/16 09:07:18;;;;;;;0.10;0.10;;;;;;;35.80;32.35;100362.28;5054274;28;20052;-73
2022/06/16 09:10:14;;;;;;;0.10;0.10;;;;;;;35.87;33.42;100353.03;5053167;28;20033;-74
2022/06/16 09:13:01;;;;;;;0.10;0.10;;;;;;;35.76;32.84;100384.94;5054592;28;20052;-74
2022/06/16 09:16:05;;;;;;;0.10;0.10;;;;;;;36.05;32.47;100388.47;5052821;28;20674;-75
2022/06/16 09:19:18;;;;;;;0.10;0.10;;;;;;;35.72;33.12;100389.44;5052886;28;20025;-74
2022/06/16 09:22:13;;;;;;;0.10;0.10;;;;;;;35.02;35.73;100380.72;5019565;28;20041;-74
2022/06/16 09:24:57;;;;;;;0.10;0.10;;;;;;;35.38;34.49;100389.56;5053268;28;20032;-74
2022/06/16 09:27:46;;;;;;;0.10;0.10;;;;;;;35.02;35.59;100389.38;5053267;28;20039;-74
2022/06/16 09:30:22;;;;;;;0.00;0.00;;;;;;;34.92;35.88;100391.75;5053363;28;20025;-74
2022/06/16 09:32:53;;;;;;;0.10;0.10;;;;;;;34.78;35.48;100389.13;5052991;28;20036;-74
2022/06/16 09:35:29;;;;;;;0.10;0.10;;;;;;;34.70;35.06;100388.09;5052608;28;20021;-74
2022/06/16 09:38:08;;;;;;;0.10;0.10;;;;;;;33.83;36.49;100392.69;5052618;28;20124;-73
2022/06/16 09:41:01;;;;;;;0.10;0.10;;;;;;;34.02;36.72;100388.00;5053750;28;20051;-72
2022/06/16 09:43:27;;;;;;;0.10;0.10;;;;;;;34.37;36.21;100384.66;5052131;28;20057;-74
2022/06/16 09:46:06;;;;;;;0.10;0.10;;;;;;;34.38;35.51;100386.22;5052677;28;20029;-74
2022/06/16 09:48:51;;;;;;;0.10;0.10;;;;;;;34.62;34.75;100388.63;5053218;28;20059;-74
2022/06/16 09:51:44;;;;;;;0.10;0.10;;;;;;;34.72;34.88;100391.25;5052313;28;20032;-73
2022/06/16 09:54:16;;;;;;;0.10;0.10;;;;;;;34.38;35.66;100392.00;5052726;28;20029;-74
2022/06/16 09:56:51;;;;;;;0.10;0.10;;;;;;;35.05;35.55;100390.41;5052590;28;20025;-74
2022/06/16 09:59:24;;;;;;;0.10;0.10;;;;;;;34.79;36.59;100390.72;5052301;28;20176;-74
2022/06/16 10:02:02;;;;;;;0.10;0.10;;;;;;;34.97;34.82;100389.41;5053302;28;20025;-74
2022/06/16 10:04:29;;;;;;;0.10;0.10;;;;;;;35.18;35.42;100388.56;5052037;28;20040;-75
2022/06/16 10:07:10;;;;;;;0.10;0.10;;;;;;;35.65;34.39;100387.88;5052174;28;20025;-75
2022/06/16 10:10:08;;;;;;;0.10;0.10;;;;;;;35.23;35.06;100389.06;5052141;28;20029;-74
2022/06/16 10:12:53;;;;;;;0.10;0.10;;;;;;;35.30;35.74;100382.72;5051169;28;20086;-74
2022/06/16 10:15:19;;;;;;;0.10;0.10;;;;;;;35.48;35.30;100390.03;5052014;28;20025;-75
2022/06/16 10:17:46;;;;;;;0.10;0.10;;;;;;;35.10;35.53;100398.28;5052637;28;20025;-74
2022/06/16 10:20:14;;;;;;;0.10;0.10;;;;;;;35.32;35.56;100392.47;5052866;28;20033;-74
2022/06/16 10:22:46;;;;;;;0.10;0.10;;;;;;;35.73;34.44;100391.78;5052195;28;20025;-75
2022/06/16 10:25:30;;;;;;;0.10;0.10;;;;;;;35.30;35.01;100371.94;5051859;28;20033;-75
2022/06/16 10:28:00;;;;;;;0.10;0.10;;;;;;;34.40;36.86;100383.59;5051861;28;20029;-74
2022/06/16 10:30:38;;;;;;;0.10;0.10;;;;;;;34.86;36.12;100387.28;5051910;28;20056;-75
2022/06/16 10:33:39;;;;;;;0.10;0.10;;;;;;;34.96;35.69;100393.63;5052697;28;20029;-75
2022/06/16 10:36:16;;;;;;;0.10;0.10;;;;;;;34.55;35.56;100391.25;5040867;28;20037;-74
2022/06/16 10:38:45;;;;;;;0.10;0.10;;;;;;;35.25;34.63;100387.22;5051832;28;20029;-74
2022/06/16 10:41:31;;;;;;;0.10;0.10;;;;;;;35.29;34.15;100392.72;5051623;28;20119;-74
2022/06/16 10:43:59;;;;;;;0.10;0.10;;;;;;;34.98;34.94;100390.97;5051471;28;20053;-75
2022/06/16 10:46:30;;;;;;;0.10;0.10;;;;;;;34.80;35.01;100380.72;5053499;28;20478;-74
2022/06/16 10:49:00;;;;;;;0.10;0.10;;;;;;;34.61;36.09;100383.38;5051643;28;20029;-74
2022/06/16 10:51:32;;;;;;;0.10;0.10;;;;;;;35.28;35.25;100385.38;5053172;28;20107;-74
2022/06/16 10:54:00;;;;;;;0.10;0.10;;;;;;;35.31;35.29;100379.31;5051961;28;20123;-75
2022/06/16 10:56:27;;;;;;;0.10;0.10;;;;;;;34.59;36.18;100380.22;5051475;28;20029;-75
2022/06/16 10:59:02;;;;;;;0.10;0.10;;;;;;;33.43;37.82;100376.53;5051537;28;20032;-76
2022/06/16 11:01:36;;;;;;;0.10;0.10;;;;;;;33.88;37.13;100375.38;5051466;28;20499;-74
2022/06/16 11:04:09;;;;;;;0.10;0.10;;;;;;;34.59;35.60;100380.22;5051445;28;20080;-74
2022/06/16 11:06:39;;;;;;;0.10;0.10;;;;;;;34.22;36.28;100375.47;5051449;28;20064;-74
2022/06/16 11:09:07;;;;;;;0.10;0.10;;;;;;;34.42;35.64;100379.41;5052043;28;20375;-74
2022/06/16 11:11:40;;;;;;;0.10;0.10;;;;;;;33.48;37.31;100372.88;5034997;28;20039;-73
2022/06/16 11:14:12;;;;;;;0.10;0.10;;;;;;;34.02;35.40;100373.59;5051763;28;20452;-76
2022/06/16 11:16:47;;;;;;;0.10;0.10;;;;;;;34.77;34.82;100370.22;5051608;28;20028;-78
2022/06/16 11:19:26;;;;;;;0.10;0.10;;;;;;;34.62;34.96;100370.50;5051338;28;20033;-77
2022/06/16 11:21:53;;;;;;;0.10;0.10;;;;;;;33.86;35.83;100362.75;5051110;28;20021;-77
2022/06/16 11:24:29;;;;;;;0.10;0.10;;;;;;;34.06;35.83;100371.25;5053980;28;20037;-76
2022/06/16 11:27:12;;;;;;;0.10;0.10;;;;;;;33.54;36.86;100359.25;5054775;28;20037;-77
2022/06/16 11:29:39;;;;;;;0.10;0.10;;;;;;;34.03;35.63;100359.94;5054844;28;20056;-75
2022/06/16 11:32:31;;;;;;;0.10;0.10;;;;;;;34.66;34.03;100365.25;5054684;28;20017;-77
2022/06/16 11:34:57;;;;;;;0.10;0.10;;;;;;;34.24;34.73;100349.72;5055208;28;20033;-77
2022/06/16 11:37:46;;;;;;;0.10;0.10;;;;;;;34.07;35.17;100358.38;5055973;28;20452;-75
2022/06/16 11:40:40;;;;;;;0.10;0.10;;;;;;;34.10;34.36;100353.66;5054685;28;20128;-77
2022/06/16 11:43:27;;;;;;;0.10;0.10;;;;;;;34.32;34.60;100365.22;5054533;28;20060;-76
2022/06/16 11:46:06;;;;;;;0.10;0.10;;;;;;;33.45;35.77;100365.25;5055104;28;20083;-73
2022/06/16 11:48:37;;;;;;;0.10;0.10;;;;;;;34.11;34.82;100363.91;5054333;28;20124;-74
2022/06/16 11:51:28;;;;;;;0.10;0.10;;;;;;;34.73;34.34;100358.94;5054276;28;20025;-75
2022/06/16 11:54:15;;;;;;;0.10;0.10;;;;;;;34.93;31.98;100364.41;5054379;28;20806;-74
2022/06/16 11:56:59;;;;;;;0.10;0.10;;;;;;;34.92;32.52;100362.84;5054761;28;20372;-75
2022/06/16 11:59:55;;;;;;;0.10;0.10;;;;;;;34.06;33.45;100364.69;5054281;28;20021;-74
2022/06/16 12:02:42;;;;;;;0.10;0.10;;;;;;;34.35;33.02;100358.38;5054427;28;20467;-75
2022/06/16 12:05:29;;;;;;;0.10;0.10;;;;;;;33.84;34.09;100348.88;5054191;28;20025;-75
2022/06/16 12:08:10;;;;;;;0.10;0.10;;;;;;;33.69;33.96;100353.28;5054363;28;20386;-75
2022/06/16 12:11:04;;;;;;;0.10;0.10;;;;;;;34.46;33.31;100345.28;5054347;28;20159;-75